sensor_id;sensor_type;location;lat;lon;timestamp;temperature;humidity
22098;DHT22;11215;51.938;8.464;2023-04-12T00:00:00;11.30;50.50
22098;DHT22;11215;51.938;8.464;2023-04-12T00:02:26;11.30;50.50
22098;DHT22;11215;51.938;8.464;2023-04-12T00:04:52;11.30;50.60
22098;DHT22;11215;51.938;8.464;2023-04-12T00:07:23;11.30;50.60
22098;DHT22;11215;51.938;8.464;2023-04-12T00:09:49;11.30;50.70
22098;DHT22;11215;51.938;8.464;2023-04-12T00:12:16;11.30;50.80
22098;DHT22;11215;51.938;8.464;2023-04-12T00:14:46;11.20;50.80
22098;DHT22;11215;51.938;8.464;2023-04-12T00:17:12;11.20;50.70
22098;DHT22;11215;51.938;8.464;2023-04-12T00:19:38;11.20;50.90
22098;DHT22;11215;51.938;8.464;2023-04-12T00:22:10;11.20;51.00
22098;DHT22;11215;51.938;8.464;2023-04-12T00:24:40;11.30;51.20
22098;DHT22;11215;51.938;8.464;2023-04-12T00:27:06;11.20;51.20
22098;DHT22;11215;51.938;8.464;2023-04-12T00:29:32;11.30;51.00
22098;DHT22;11215;51.938;8.464;2023-04-12T00:31:58;11.30;51.10
22098;DHT22;11215;51.938;8.464;2023-04-12T00:34:26;11.30;51.10
22098;DHT22;11215;51.938;8.464;2023-04-12T00:36:53;11.30;51.10
22098;DHT22;11215;51.938;8.464;2023-04-12T00:39:18;11.30;51.20
22098;DHT22;11215;51.938;8.464;2023-04-12T00:41:44;11.30;51.10
22098;DHT22;11215;51.938;8.464;2023-04-12T00:44:10;11.30;51.10
22098;DHT22;11215;51.938;8.464;2023-04-12T00:46:36;11.30;51.20
22098;DHT22;11215;51.938;8.464;2023-04-12T00:49:02;11.30;51.20
22098;DHT22;11215;51.938;8.464;2023-04-12T00:51:28;11.30;51.30
22098;DHT22;11215;51.938;8.464;2023-04-12T00:53:58;11.40;51.30
22098;DHT22;11215;51.938;8.464;2023-04-12T00:56:25;11.30;51.30
22098;DHT22;11215;51.938;8.464;2023-04-12T00:58:53;11.30;51.20
22098;DHT22;11215;51.938;8.464;2023-04-12T01:01:18;11.30;51.40
22098;DHT22;11215;51.938;8.464;2023-04-12T01:03:46;11.40;51.40
22098;DHT22;11215;51.938;8.464;2023-04-12T01:06:18;11.40;51.50
22098;DHT22;11215;51.938;8.464;2023-04-12T01:11:46;11.40;52.00
22098;DHT22;11215;51.938;8.464;2023-04-12T01:17:31;11.40;52.10
22098;DHT22;11215;51.938;8.464;2023-04-12T01:20:21;11.40;51.60
22098;DHT22;11215;51.938;8.464;2023-04-12T01:26:26;11.50;52.00
22098;DHT22;11215;51.938;8.464;2023-04-12T01:28:57;11.50;51.80
22098;DHT22;11215;51.938;8.464;2023-04-12T01:31:25;11.50;51.40
22098;DHT22;11215;51.938;8.464;2023-04-12T01:33:53;11.50;51.50
22098;DHT22;11215;51.938;8.464;2023-04-12T01:36:22;11.50;51.60
22098;DHT22;11215;51.938;8.464;2023-04-12T01:38:49;11.50;51.70
22098;DHT22;11215;51.938;8.464;2023-04-12T01:41:15;11.50;51.70
22098;DHT22;11215;51.938;8.464;2023-04-12T01:43:45;11.50;51.60
22098;DHT22;11215;51.938;8.464;2023-04-12T01:46:15;11.50;51.70
22098;DHT22;11215;51.938;8.464;2023-04-12T01:48:48;11.50;51.60
22098;DHT22;11215;51.938;8.464;2023-04-12T01:54:22;11.50;51.70
22098;DHT22;11215;51.938;8.464;2023-04-12T01:56:55;11.60;52.30
22098;DHT22;11215;51.938;8.464;2023-04-12T01:59:25;11.60;52.00
22098;DHT22;11215;51.938;8.464;2023-04-12T02:01:51;11.60;51.80
22098;DHT22;11215;51.938;8.464;2023-04-12T02:04:18;11.50;51.80
22098;DHT22;11215;51.938;8.464;2023-04-12T02:06:45;11.50;51.80
22098;DHT22;11215;51.938;8.464;2023-04-12T02:09:12;11.50;51.80
22098;DHT22;11215;51.938;8.464;2023-04-12T02:11:37;11.50;51.80
22098;DHT22;11215;51.938;8.464;2023-04-12T02:14:03;11.50;51.80
22098;DHT22;11215;51.938;8.464;2023-04-12T02:16:29;11.50;51.80
22098;DHT22;11215;51.938;8.464;2023-04-12T02:18:56;11.50;51.90
22098;DHT22;11215;51.938;8.464;2023-04-12T02:21:23;11.50;52.00
22098;DHT22;11215;51.938;8.464;2023-04-12T02:23:50;11.50;52.00
22098;DHT22;11215;51.938;8.464;2023-04-12T02:26:16;11.50;51.90
22098;DHT22;11215;51.938;8.464;2023-04-12T02:28:43;11.50;52.00
22098;DHT22;11215;51.938;8.464;2023-04-12T02:31:08;11.50;52.00
22098;DHT22;11215;51.938;8.464;2023-04-12T02:33:34;11.50;52.20
22098;DHT22;11215;51.938;8.464;2023-04-12T02:36:00;11.50;52.20
22098;DHT22;11215;51.938;8.464;2023-04-12T02:38:29;11.50;52.30
22098;DHT22;11215;51.938;8.464;2023-04-12T02:40:55;11.50;52.20
22098;DHT22;11215;51.938;8.464;2023-04-12T02:43:20;11.50;52.20
22098;DHT22;11215;51.938;8.464;2023-04-12T02:45:46;11.50;52.30
22098;DHT22;11215;51.938;8.464;2023-04-12T02:48:12;11.50;52.40
22098;DHT22;11215;51.938;8.464;2023-04-12T02:50:38;11.50;52.50
22098;DHT22;11215;51.938;8.464;2023-04-12T02:53:03;11.50;52.50
22098;DHT22;11215;51.938;8.464;2023-04-12T02:55:29;11.50;52.70
22098;DHT22;11215;51.938;8.464;2023-04-12T02:57:55;11.50;52.70
22098;DHT22;11215;51.938;8.464;2023-04-12T03:00:22;11.50;52.80
22098;DHT22;11215;51.938;8.464;2023-04-12T03:02:48;11.50;52.90
22098;DHT22;11215;51.938;8.464;2023-04-12T03:05:17;11.50;53.00
22098;DHT22;11215;51.938;8.464;2023-04-12T03:07:43;11.50;53.00
22098;DHT22;11215;51.938;8.464;2023-04-12T03:10:09;11.50;53.20
22098;DHT22;11215;51.938;8.464;2023-04-12T03:12:38;11.50;53.20
22098;DHT22;11215;51.938;8.464;2023-04-12T03:15:04;11.50;53.20
22098;DHT22;11215;51.938;8.464;2023-04-12T03:17:29;11.50;53.30
22098;DHT22;11215;51.938;8.464;2023-04-12T03:19:55;11.50;53.30
22098;DHT22;11215;51.938;8.464;2023-04-12T03:22:22;11.50;53.50
22098;DHT22;11215;51.938;8.464;2023-04-12T03:24:49;11.50;53.60
22098;DHT22;11215;51.938;8.464;2023-04-12T03:27:16;11.50;53.70
22098;DHT22;11215;51.938;8.464;2023-04-12T03:29:41;11.50;53.80
22098;DHT22;11215;51.938;8.464;2023-04-12T03:32:07;11.50;53.90
22098;DHT22;11215;51.938;8.464;2023-04-12T03:34:33;11.50;53.90
22098;DHT22;11215;51.938;8.464;2023-04-12T03:37:00;11.50;54.10
22098;DHT22;11215;51.938;8.464;2023-04-12T03:39:26;11.50;54.20
22098;DHT22;11215;51.938;8.464;2023-04-12T03:41:52;11.50;54.40
22098;DHT22;11215;51.938;8.464;2023-04-12T03:44:18;11.50;54.40
22098;DHT22;11215;51.938;8.464;2023-04-12T03:46:44;11.50;54.40
22098;DHT22;11215;51.938;8.464;2023-04-12T03:49:10;11.50;54.40
22098;DHT22;11215;51.938;8.464;2023-04-12T03:51:36;11.40;54.40
22098;DHT22;11215;51.938;8.464;2023-04-12T03:54:07;11.40;54.40
22098;DHT22;11215;51.938;8.464;2023-04-12T03:56:33;11.40;54.30
22098;DHT22;11215;51.938;8.464;2023-04-12T03:58:59;11.40;54.60
22098;DHT22;11215;51.938;8.464;2023-04-12T04:01:25;11.40;54.40
22098;DHT22;11215;51.938;8.464;2023-04-12T04:03:50;11.40;54.60
22098;DHT22;11215;51.938;8.464;2023-04-12T04:06:16;11.40;54.70
22098;DHT22;11215;51.938;8.464;2023-04-12T04:08:43;11.40;54.80
22098;DHT22;11215;51.938;8.464;2023-04-12T04:11:10;11.40;54.90
22098;DHT22;11215;51.938;8.464;2023-04-12T04:13:36;11.40;55.00
22098;DHT22;11215;51.938;8.464;2023-04-12T04:16:04;11.40;55.00
22098;DHT22;11215;51.938;8.464;2023-04-12T04:18:30;11.40;54.90
22098;DHT22;11215;51.938;8.464;2023-04-12T04:20:57;11.40;54.80
22098;DHT22;11215;51.938;8.464;2023-04-12T04:23:23;11.40;54.90
22098;DHT22;11215;51.938;8.464;2023-04-12T04:25:49;11.40;55.00
22098;DHT22;11215;51.938;8.464;2023-04-12T04:28:15;11.40;55.00
22098;DHT22;11215;51.938;8.464;2023-04-12T04:30:41;11.40;55.10
22098;DHT22;11215;51.938;8.464;2023-04-12T04:33:10;11.40;55.00
22098;DHT22;11215;51.938;8.464;2023-04-12T04:35:38;11.40;54.90
22098;DHT22;11215;51.938;8.464;2023-04-12T04:38:04;11.40;55.00
22098;DHT22;11215;51.938;8.464;2023-04-12T04:40:31;11.40;54.90
22098;DHT22;11215;51.938;8.464;2023-04-12T04:42:56;11.40;54.80
22098;DHT22;11215;51.938;8.464;2023-04-12T04:45:24;11.40;54.80
22098;DHT22;11215;51.938;8.464;2023-04-12T04:47:54;11.40;54.80
22098;DHT22;11215;51.938;8.464;2023-04-12T04:50:21;11.40;55.10
22098;DHT22;11215;51.938;8.464;2023-04-12T04:52:48;11.40;55.00
22098;DHT22;11215;51.938;8.464;2023-04-12T04:55:14;11.50;55.00
22098;DHT22;11215;51.938;8.464;2023-04-12T04:57:42;11.50;55.00
22098;DHT22;11215;51.938;8.464;2023-04-12T05:00:08;11.40;55.70
22098;DHT22;11215;51.938;8.464;2023-04-12T05:02:41;11.50;55.10
22098;DHT22;11215;51.938;8.464;2023-04-12T05:05:11;11.50;55.00
22098;DHT22;11215;51.938;8.464;2023-04-12T05:07:38;11.50;55.10
22098;DHT22;11215;51.938;8.464;2023-04-12T05:10:04;11.50;55.00
22098;DHT22;11215;51.938;8.464;2023-04-12T05:12:30;11.50;55.10
22098;DHT22;11215;51.938;8.464;2023-04-12T05:14:58;11.50;54.90
22098;DHT22;11215;51.938;8.464;2023-04-12T05:17:24;11.60;55.20
22098;DHT22;11215;51.938;8.464;2023-04-12T05:19:50;11.60;55.20
22098;DHT22;11215;51.938;8.464;2023-04-12T05:22:15;11.60;55.20
22098;DHT22;11215;51.938;8.464;2023-04-12T05:24:45;11.70;55.30
22098;DHT22;11215;51.938;8.464;2023-04-12T05:27:10;11.60;55.30
22098;DHT22;11215;51.938;8.464;2023-04-12T05:29:36;11.70;55.40
22098;DHT22;11215;51.938;8.464;2023-04-12T05:32:02;11.70;55.30
22098;DHT22;11215;51.938;8.464;2023-04-12T05:34:28;11.70;55.30
22098;DHT22;11215;51.938;8.464;2023-04-12T05:36:53;11.80;55.20
22098;DHT22;11215;51.938;8.464;2023-04-12T05:39:19;11.80;55.30
22098;DHT22;11215;51.938;8.464;2023-04-12T05:41:45;11.70;56.40
22098;DHT22;11215;51.938;8.464;2023-04-12T05:44:11;11.70;56.20
22098;DHT22;11215;51.938;8.464;2023-04-12T05:46:36;11.80;56.00
22098;DHT22;11215;51.938;8.464;2023-04-12T05:49:02;11.80;56.00
22098;DHT22;11215;51.938;8.464;2023-04-12T05:51:28;11.90;55.90
22098;DHT22;11215;51.938;8.464;2023-04-12T05:53:53;11.90;55.80
22098;DHT22;11215;51.938;8.464;2023-04-12T05:56:19;11.90;55.80
22098;DHT22;11215;51.938;8.464;2023-04-12T05:58:45;11.90;55.80
22098;DHT22;11215;51.938;8.464;2023-04-12T06:01:14;11.90;55.80
22098;DHT22;11215;51.938;8.464;2023-04-12T06:03:41;12.00;55.80
22098;DHT22;11215;51.938;8.464;2023-04-12T06:06:08;12.00;55.70
22098;DHT22;11215;51.938;8.464;2023-04-12T06:08:34;12.00;55.90
22098;DHT22;11215;51.938;8.464;2023-04-12T06:11:00;12.00;55.90
22098;DHT22;11215;51.938;8.464;2023-04-12T06:13:26;12.00;55.90
22098;DHT22;11215;51.938;8.464;2023-04-12T06:15:51;12.00;56.00
22098;DHT22;11215;51.938;8.464;2023-04-12T06:18:17;12.10;56.10
22098;DHT22;11215;51.938;8.464;2023-04-12T06:20:43;12.10;56.10
22098;DHT22;11215;51.938;8.464;2023-04-12T06:23:08;12.10;56.20
22098;DHT22;11215;51.938;8.464;2023-04-12T06:25:35;12.10;56.20
22098;DHT22;11215;51.938;8.464;2023-04-12T06:28:01;12.10;56.30
22098;DHT22;11215;51.938;8.464;2023-04-12T06:30:27;12.20;56.30
22098;DHT22;11215;51.938;8.464;2023-04-12T06:32:52;12.20;56.40
22098;DHT22;11215;51.938;8.464;2023-04-12T06:35:18;12.30;56.50
22098;DHT22;11215;51.938;8.464;2023-04-12T06:37:45;12.20;56.40
22098;DHT22;11215;51.938;8.464;2023-04-12T06:40:11;12.30;56.30
22098;DHT22;11215;51.938;8.464;2023-04-12T06:42:37;12.30;56.30
22098;DHT22;11215;51.938;8.464;2023-04-12T06:45:03;12.30;56.50
22098;DHT22;11215;51.938;8.464;2023-04-12T06:47:30;12.40;56.40
22098;DHT22;11215;51.938;8.464;2023-04-12T06:49:56;12.40;56.40
22098;DHT22;11215;51.938;8.464;2023-04-12T06:52:23;12.40;56.50
22098;DHT22;11215;51.938;8.464;2023-04-12T06:54:51;12.40;56.50
22098;DHT22;11215;51.938;8.464;2023-04-12T06:57:16;12.40;56.60
22098;DHT22;11215;51.938;8.464;2023-04-12T06:59:42;12.40;56.70
22098;DHT22;11215;51.938;8.464;2023-04-12T07:02:08;12.40;56.90
22098;DHT22;11215;51.938;8.464;2023-04-12T07:04:33;12.40;57.00
22098;DHT22;11215;51.938;8.464;2023-04-12T07:06:59;12.40;57.10
22098;DHT22;11215;51.938;8.464;2023-04-12T07:09:25;12.40;57.00
22098;DHT22;11215;51.938;8.464;2023-04-12T07:11:51;12.40;57.10
22098;DHT22;11215;51.938;8.464;2023-04-12T07:14:17;12.40;57.30
22098;DHT22;11215;51.938;8.464;2023-04-12T07:16:42;12.40;57.40
22098;DHT22;11215;51.938;8.464;2023-04-12T07:19:08;12.40;57.60
22098;DHT22;11215;51.938;8.464;2023-04-12T07:21:34;12.30;58.20
22098;DHT22;11215;51.938;8.464;2023-04-12T07:23:59;12.30;57.50
22098;DHT22;11215;51.938;8.464;2023-04-12T07:26:26;12.40;57.60
22098;DHT22;11215;51.938;8.464;2023-04-12T07:28:51;12.30;57.60
22098;DHT22;11215;51.938;8.464;2023-04-12T07:31:17;12.30;57.80
22098;DHT22;11215;51.938;8.464;2023-04-12T07:33:43;12.30;58.30
22098;DHT22;11215;51.938;8.464;2023-04-12T07:36:09;12.30;58.50
22098;DHT22;11215;51.938;8.464;2023-04-12T07:38:35;12.30;58.50
22098;DHT22;11215;51.938;8.464;2023-04-12T07:41:01;12.30;58.70
22098;DHT22;11215;51.938;8.464;2023-04-12T07:43:26;12.30;59.40
22098;DHT22;11215;51.938;8.464;2023-04-12T07:45:54;12.30;58.90
22098;DHT22;11215;51.938;8.464;2023-04-12T07:48:20;12.30;59.30
22098;DHT22;11215;51.938;8.464;2023-04-12T07:50:46;12.30;59.20
22098;DHT22;11215;51.938;8.464;2023-04-12T07:53:23;12.30;59.40
22098;DHT22;11215;51.938;8.464;2023-04-12T07:55:49;12.20;60.70
22098;DHT22;11215;51.938;8.464;2023-04-12T07:58:16;12.20;59.60
22098;DHT22;11215;51.938;8.464;2023-04-12T08:00:42;12.20;59.60
22098;DHT22;11215;51.938;8.464;2023-04-12T08:03:10;12.30;60.00
22098;DHT22;11215;51.938;8.464;2023-04-12T08:05:36;12.30;60.10
22098;DHT22;11215;51.938;8.464;2023-04-12T08:08:02;12.20;59.90
22098;DHT22;11215;51.938;8.464;2023-04-12T08:10:29;12.20;60.20
22098;DHT22;11215;51.938;8.464;2023-04-12T08:12:55;12.30;60.30
22098;DHT22;11215;51.938;8.464;2023-04-12T08:15:21;12.30;60.80
22098;DHT22;11215;51.938;8.464;2023-04-12T08:17:47;12.30;61.20
22098;DHT22;11215;51.938;8.464;2023-04-12T08:20:13;12.30;61.20
22098;DHT22;11215;51.938;8.464;2023-04-12T08:22:41;12.30;61.50
22098;DHT22;11215;51.938;8.464;2023-04-12T08:25:07;12.30;61.50
22098;DHT22;11215;51.938;8.464;2023-04-12T08:27:33;12.40;61.20
22098;DHT22;11215;51.938;8.464;2023-04-12T08:29:59;12.40;61.30
22098;DHT22;11215;51.938;8.464;2023-04-12T08:32:25;12.40;61.30
22098;DHT22;11215;51.938;8.464;2023-04-12T08:34:50;12.40;61.10
22098;DHT22;11215;51.938;8.464;2023-04-12T08:37:16;12.50;61.30
22098;DHT22;11215;51.938;8.464;2023-04-12T08:39:42;12.40;61.50
22098;DHT22;11215;51.938;8.464;2023-04-12T08:42:08;12.50;61.50
22098;DHT22;11215;51.938;8.464;2023-04-12T08:44:36;12.50;61.70
22098;DHT22;11215;51.938;8.464;2023-04-12T08:47:07;12.50;61.60
22098;DHT22;11215;51.938;8.464;2023-04-12T08:49:34;12.50;61.90
22098;DHT22;11215;51.938;8.464;2023-04-12T08:52:05;12.60;61.40
22098;DHT22;11215;51.938;8.464;2023-04-12T08:54:33;12.50;61.70
22098;DHT22;11215;51.938;8.464;2023-04-12T08:57:02;12.60;61.70
22098;DHT22;11215;51.938;8.464;2023-04-12T08:59:30;12.60;61.70
22098;DHT22;11215;51.938;8.464;2023-04-12T09:01:56;12.60;61.90
22098;DHT22;11215;51.938;8.464;2023-04-12T09:04:23;12.60;62.10
22098;DHT22;11215;51.938;8.464;2023-04-12T09:06:49;12.60;62.30
22098;DHT22;11215;51.938;8.464;2023-04-12T09:09:15;12.60;62.00
22098;DHT22;11215;51.938;8.464;2023-04-12T09:11:41;12.60;62.10
22098;DHT22;11215;51.938;8.464;2023-04-12T09:14:23;12.70;62.60
22098;DHT22;11215;51.938;8.464;2023-04-12T09:16:50;12.70;64.10
22098;DHT22;11215;51.938;8.464;2023-04-12T09:19:18;12.70;62.60
22098;DHT22;11215;51.938;8.464;2023-04-12T09:21:55;12.80;63.00
22098;DHT22;11215;51.938;8.464;2023-04-12T09:24:21;12.80;62.80
22098;DHT22;11215;51.938;8.464;2023-04-12T09:27:04;12.90;63.00
22098;DHT22;11215;51.938;8.464;2023-04-12T09:29:31;12.90;63.70
22098;DHT22;11215;51.938;8.464;2023-04-12T09:32:00;13.00;62.80
22098;DHT22;11215;51.938;8.464;2023-04-12T09:34:26;13.00;63.10
22098;DHT22;11215;51.938;8.464;2023-04-12T09:36:52;13.10;62.60
22098;DHT22;11215;51.938;8.464;2023-04-12T09:39:18;13.10;62.60
22098;DHT22;11215;51.938;8.464;2023-04-12T09:41:44;13.10;62.90
22098;DHT22;11215;51.938;8.464;2023-04-12T09:44:29;13.20;63.20
22098;DHT22;11215;51.938;8.464;2023-04-12T09:46:55;13.20;63.90
22098;DHT22;11215;51.938;8.464;2023-04-12T09:49:38;13.30;62.80
22098;DHT22;11215;51.938;8.464;2023-04-12T09:52:05;13.30;63.50
22098;DHT22;11215;51.938;8.464;2023-04-12T09:54:45;13.40;62.70
22098;DHT22;11215;51.938;8.464;2023-04-12T09:57:17;13.40;63.10
22098;DHT22;11215;51.938;8.464;2023-04-12T09:59:48;13.50;62.80
22098;DHT22;11215;51.938;8.464;2023-04-12T10:02:17;13.50;62.60
22098;DHT22;11215;51.938;8.464;2023-04-12T10:04:44;13.50;62.60
22098;DHT22;11215;51.938;8.464;2023-04-12T10:07:11;13.60;62.60
22098;DHT22;11215;51.938;8.464;2023-04-12T10:09:38;13.70;62.30
22098;DHT22;11215;51.938;8.464;2023-04-12T10:12:05;13.70;62.30
22098;DHT22;11215;51.938;8.464;2023-04-12T10:14:30;13.70;62.40
22098;DHT22;11215;51.938;8.464;2023-04-12T10:16:58;13.70;62.30
22098;DHT22;11215;51.938;8.464;2023-04-12T10:19:25;13.70;62.10
22098;DHT22;11215;51.938;8.464;2023-04-12T10:21:52;13.80;62.10
22098;DHT22;11215;51.938;8.464;2023-04-12T10:24:23;13.80;61.90
22098;DHT22;11215;51.938;8.464;2023-04-12T10:26:51;13.80;62.30
22098;DHT22;11215;51.938;8.464;2023-04-12T10:29:33;13.80;62.00
22098;DHT22;11215;51.938;8.464;2023-04-12T10:32:21;13.90;62.40
22098;DHT22;11215;51.938;8.464;2023-04-12T10:34:57;13.90;62.60
22098;DHT22;11215;51.938;8.464;2023-04-12T10:40:26;13.90;63.30
22098;DHT22;11215;51.938;8.464;2023-04-12T10:45:49;13.90;63.60
22098;DHT22;11215;51.938;8.464;2023-04-12T10:48:50;13.90;62.70
22098;DHT22;11215;51.938;8.464;2023-04-12T10:51:21;13.90;63.80
22098;DHT22;11215;51.938;8.464;2023-04-12T10:53:52;13.90;62.70
22098;DHT22;11215;51.938;8.464;2023-04-12T10:59:00;13.90;63.50
22098;DHT22;11215;51.938;8.464;2023-04-12T11:01:26;14.00;62.70
22098;DHT22;11215;51.938;8.464;2023-04-12T11:11:47;14.10;63.70
22098;DHT22;11215;51.938;8.464;2023-04-12T11:14:14;14.10;63.30
22098;DHT22;11215;51.938;8.464;2023-04-12T11:19:31;14.10;64.10
22098;DHT22;11215;51.938;8.464;2023-04-12T11:21:59;14.10;62.90
22098;DHT22;11215;51.938;8.464;2023-04-12T11:24:25;14.20;63.10
22098;DHT22;11215;51.938;8.464;2023-04-12T11:26:51;14.20;63.20
22098;DHT22;11215;51.938;8.464;2023-04-12T11:29:24;14.20;63.40
22098;DHT22;11215;51.938;8.464;2023-04-12T11:31:50;14.20;63.90
22098;DHT22;11215;51.938;8.464;2023-04-12T11:34:16;14.20;63.30
22098;DHT22;11215;51.938;8.464;2023-04-12T11:36:47;14.30;63.70
22098;DHT22;11215;51.938;8.464;2023-04-12T11:39:14;14.30;63.90
22098;DHT22;11215;51.938;8.464;2023-04-12T11:41:43;14.30;63.90
22098;DHT22;11215;51.938;8.464;2023-04-12T11:44:10;14.40;64.10
22098;DHT22;11215;51.938;8.464;2023-04-12T11:46:35;14.40;63.70
22098;DHT22;11215;51.938;8.464;2023-04-12T11:49:01;14.50;63.60
22098;DHT22;11215;51.938;8.464;2023-04-12T11:51:26;14.50;63.80
22098;DHT22;11215;51.938;8.464;2023-04-12T11:53:54;14.60;64.10
22098;DHT22;11215;51.938;8.464;2023-04-12T11:56:21;14.60;64.20
22098;DHT22;11215;51.938;8.464;2023-04-12T11:58:47;14.60;64.30
22098;DHT22;11215;51.938;8.464;2023-04-12T12:01:18;14.70;64.40
22098;DHT22;11215;51.938;8.464;2023-04-12T12:03:45;14.70;64.50
22098;DHT22;11215;51.938;8.464;2023-04-12T12:06:11;14.70;63.80
22098;DHT22;11215;51.938;8.464;2023-04-12T12:08:38;14.80;63.90
22098;DHT22;11215;51.938;8.464;2023-04-12T12:11:04;14.80;63.80
22098;DHT22;11215;51.938;8.464;2023-04-12T12:16:12;14.80;64.60
22098;DHT22;11215;51.938;8.464;2023-04-12T12:18:42;14.80;64.70
22098;DHT22;11215;51.938;8.464;2023-04-12T12:21:08;14.80;64.50
22098;DHT22;11215;51.938;8.464;2023-04-12T12:23:35;14.80;64.30
22098;DHT22;11215;51.938;8.464;2023-04-12T12:26:02;14.80;64.30
22098;DHT22;11215;51.938;8.464;2023-04-12T12:28:28;14.80;65.20
22098;DHT22;11215;51.938;8.464;2023-04-12T12:30:57;14.90;64.40
22098;DHT22;11215;51.938;8.464;2023-04-12T12:33:23;14.90;64.70
22098;DHT22;11215;51.938;8.464;2023-04-12T12:35:58;14.90;64.50
22098;DHT22;11215;51.938;8.464;2023-04-12T12:38:24;14.90;65.00
22098;DHT22;11215;51.938;8.464;2023-04-12T12:40:49;14.90;64.20
22098;DHT22;11215;51.938;8.464;2023-04-12T12:43:19;14.90;64.30
22098;DHT22;11215;51.938;8.464;2023-04-12T12:45:45;14.90;64.60
22098;DHT22;11215;51.938;8.464;2023-04-12T12:48:12;14.90;64.30
22098;DHT22;11215;51.938;8.464;2023-04-12T12:50:38;14.90;64.40
22098;DHT22;11215;51.938;8.464;2023-04-12T12:53:03;14.90;64.50
22098;DHT22;11215;51.938;8.464;2023-04-12T12:55:31;14.90;64.30
22098;DHT22;11215;51.938;8.464;2023-04-12T12:57:57;14.90;64.40
22098;DHT22;11215;51.938;8.464;2023-04-12T13:00:25;14.90;64.60
22098;DHT22;11215;51.938;8.464;2023-04-12T13:02:51;14.90;64.70
22098;DHT22;11215;51.938;8.464;2023-04-12T13:05:18;14.90;64.70
22098;DHT22;11215;51.938;8.464;2023-04-12T13:07:44;14.90;64.70
22098;DHT22;11215;51.938;8.464;2023-04-12T13:10:10;14.90;64.50
22098;DHT22;11215;51.938;8.464;2023-04-12T13:12:36;14.90;64.50
22098;DHT22;11215;51.938;8.464;2023-04-12T13:15:02;14.90;65.30
22098;DHT22;11215;51.938;8.464;2023-04-12T13:17:29;15.00;64.60
22098;DHT22;11215;51.938;8.464;2023-04-12T13:19:55;15.00;65.50
22098;DHT22;11215;51.938;8.464;2023-04-12T13:22:21;14.90;64.50
22098;DHT22;11215;51.938;8.464;2023-04-12T13:24:47;14.90;64.50
22098;DHT22;11215;51.938;8.464;2023-04-12T13:27:13;14.90;64.50
22098;DHT22;11215;51.938;8.464;2023-04-12T13:29:39;14.90;64.60
22098;DHT22;11215;51.938;8.464;2023-04-12T13:32:05;14.90;64.60
22098;DHT22;11215;51.938;8.464;2023-04-12T13:34:31;14.90;64.70
22098;DHT22;11215;51.938;8.464;2023-04-12T13:36:57;14.90;64.80
22098;DHT22;11215;51.938;8.464;2023-04-12T13:39:23;14.80;64.80
22098;DHT22;11215;51.938;8.464;2023-04-12T13:41:49;14.80;64.90
22098;DHT22;11215;51.938;8.464;2023-04-12T13:44:15;14.80;65.10
22098;DHT22;11215;51.938;8.464;2023-04-12T13:46:41;14.70;65.00
22098;DHT22;11215;51.938;8.464;2023-04-12T13:49:06;14.70;65.30
22098;DHT22;11215;51.938;8.464;2023-04-12T13:51:32;14.70;65.70
22098;DHT22;11215;51.938;8.464;2023-04-12T13:53:59;14.70;65.80
22098;DHT22;11215;51.938;8.464;2023-04-12T13:56:24;14.70;65.80
22098;DHT22;11215;51.938;8.464;2023-04-12T13:58:50;14.70;65.60
22098;DHT22;11215;51.938;8.464;2023-04-12T14:01:16;14.60;65.90
22098;DHT22;11215;51.938;8.464;2023-04-12T14:03:43;14.60;66.10
22098;DHT22;11215;51.938;8.464;2023-04-12T14:06:08;14.60;66.30
22098;DHT22;11215;51.938;8.464;2023-04-12T14:08:34;14.60;66.70
22098;DHT22;11215;51.938;8.464;2023-04-12T14:11:01;14.70;67.00
22098;DHT22;11215;51.938;8.464;2023-04-12T14:13:27;14.60;67.30
22098;DHT22;11215;51.938;8.464;2023-04-12T14:15:53;14.70;67.30
22098;DHT22;11215;51.938;8.464;2023-04-12T14:18:19;14.70;67.30
22098;DHT22;11215;51.938;8.464;2023-04-12T14:20:49;14.70;67.30
22098;DHT22;11215;51.938;8.464;2023-04-12T14:23:17;14.80;67.30
22098;DHT22;11215;51.938;8.464;2023-04-12T14:25:43;14.80;67.30
22098;DHT22;11215;51.938;8.464;2023-04-12T14:28:08;14.90;67.30
22098;DHT22;11215;51.938;8.464;2023-04-12T14:30:34;14.90;67.60
22098;DHT22;11215;51.938;8.464;2023-04-12T14:33:00;15.00;67.20
22098;DHT22;11215;51.938;8.464;2023-04-12T14:35:25;15.00;66.40
22098;DHT22;11215;51.938;8.464;2023-04-12T14:37:51;15.10;66.20
22098;DHT22;11215;51.938;8.464;2023-04-12T14:40:17;15.10;65.80
22098;DHT22;11215;51.938;8.464;2023-04-12T14:42:43;15.20;65.70
22098;DHT22;11215;51.938;8.464;2023-04-12T14:45:09;15.20;65.50
22098;DHT22;11215;51.938;8.464;2023-04-12T14:47:35;15.20;65.00
22098;DHT22;11215;51.938;8.464;2023-04-12T14:50:02;15.30;65.10
22098;DHT22;11215;51.938;8.464;2023-04-12T14:52:28;15.30;65.20
22098;DHT22;11215;51.938;8.464;2023-04-12T14:54:53;15.30;64.80
22098;DHT22;11215;51.938;8.464;2023-04-12T14:57:19;15.30;64.40
22098;DHT22;11215;51.938;8.464;2023-04-12T14:59:44;15.30;64.50
22098;DHT22;11215;51.938;8.464;2023-04-12T15:02:10;15.30;64.20
22098;DHT22;11215;51.938;8.464;2023-04-12T15:04:36;15.30;64.50
22098;DHT22;11215;51.938;8.464;2023-04-12T15:07:02;15.30;64.40
22098;DHT22;11215;51.938;8.464;2023-04-12T15:09:28;15.40;64.40
22098;DHT22;11215;51.938;8.464;2023-04-12T15:11:53;15.40;64.70
22098;DHT22;11215;51.938;8.464;2023-04-12T15:14:25;15.40;64.70
22098;DHT22;11215;51.938;8.464;2023-04-12T15:16:51;15.40;64.60
22098;DHT22;11215;51.938;8.464;2023-04-12T15:19:18;15.50;64.70
22098;DHT22;11215;51.938;8.464;2023-04-12T15:21:46;15.50;64.20
22098;DHT22;11215;51.938;8.464;2023-04-12T15:24:15;15.60;63.80
22098;DHT22;11215;51.938;8.464;2023-04-12T15:26:42;15.50;63.50
22098;DHT22;11215;51.938;8.464;2023-04-12T15:29:07;15.60;63.40
22098;DHT22;11215;51.938;8.464;2023-04-12T15:31:33;15.60;63.40
22098;DHT22;11215;51.938;8.464;2023-04-12T15:33:59;15.60;63.50
22098;DHT22;11215;51.938;8.464;2023-04-12T15:36:28;15.60;63.30
22098;DHT22;11215;51.938;8.464;2023-04-12T15:38:58;15.70;62.90
22098;DHT22;11215;51.938;8.464;2023-04-12T15:41:24;15.70;62.80
22098;DHT22;11215;51.938;8.464;2023-04-12T15:43:49;15.70;62.60
22098;DHT22;11215;51.938;8.464;2023-04-12T15:46:15;15.80;61.70
22098;DHT22;11215;51.938;8.464;2023-04-12T15:48:41;15.80;60.80
22098;DHT22;11215;51.938;8.464;2023-04-12T15:51:07;15.70;60.40
22098;DHT22;11215;51.938;8.464;2023-04-12T15:53:32;15.70;60.00
22098;DHT22;11215;51.938;8.464;2023-04-12T15:55:58;15.80;59.50
22098;DHT22;11215;51.938;8.464;2023-04-12T15:58:25;15.70;59.20
22098;DHT22;11215;51.938;8.464;2023-04-12T16:00:53;15.70;59.40
22098;DHT22;11215;51.938;8.464;2023-04-12T16:03:20;15.70;59.40